createdAt,value
2018-10-21T00:00:22.066Z,3.90
2018-10-21T00:05:25.506Z,4.33
2018-10-21T00:10:29.755Z,4.20
2018-10-21T00:15:33.202Z,4.47
2018-10-21T00:20:36.505Z,5.67
2018-10-21T00:25:40.138Z,4.77
2018-10-21T00:30:43.708Z,4.70
2018-10-21T00:35:47.234Z,3.80
2018-10-21T00:40:51.070Z,4.07
2018-10-21T00:45:54.517Z,3.87
2018-10-21T00:50:58.136Z,4.40
2018-10-21T00:56:01.994Z,4.03
2018-10-21T01:01:05.662Z,3.43
2018-10-21T01:06:09.333Z,3.17
2018-10-21T01:11:13.007Z,4.93
2018-10-21T01:16:20.362Z,4.03
2018-10-21T01:21:24.066Z,5.70
2018-10-21T01:26:28.775Z,4.33
2018-10-21T01:31:32.252Z,3.23
2018-10-21T01:36:35.673Z,3.63
2018-10-21T01:41:39.537Z,5.60
2018-10-21T01:46:43.381Z,3.63
2018-10-21T01:51:47.955Z,4.70
2018-10-21T01:56:51.549Z,4.03
2018-10-21T02:01:54.916Z,3.90
2018-10-21T02:06:58.305Z,3.47
2018-10-21T02:12:01.931Z,4.47
2018-10-21T02:17:06.273Z,4.27
2018-10-21T02:22:10.190Z,5.17
2018-10-21T02:27:14.197Z,4.50
2018-10-21T02:32:22.434Z,4.97
2018-10-21T02:37:26.146Z,7.53
2018-10-21T02:42:30.867Z,4.40
2018-10-21T02:47:34.521Z,4.67
2018-10-21T02:52:38.306Z,3.70
2018-10-21T02:57:42.038Z,4.13
2018-10-21T03:02:45.429Z,4.90
2018-10-21T03:07:49.149Z,5.03
2018-10-21T03:12:52.993Z,4.20
2018-10-21T03:17:56.472Z,3.60
2018-10-21T03:23:05.168Z,4.57
2018-10-21T03:28:09.030Z,4.07
2018-10-21T03:33:13.009Z,3.67
2018-10-21T03:38:18.613Z,3.20
2018-10-21T03:43:22.440Z,3.60
2018-10-21T03:48:25.817Z,3.30
2018-10-21T03:53:33.668Z,3.80
2018-10-21T03:58:37.561Z,3.03
2018-10-21T04:03:41.116Z,4.20
2018-10-21T04:08:44.886Z,4.40
2018-10-21T04:13:48.436Z,4.00
2018-10-21T04:18:52.170Z,4.53
2018-10-21T04:23:56.341Z,4.60
2018-10-21T04:29:05.503Z,5.70
2018-10-21T04:34:09.053Z,5.97
2018-10-21T04:39:22.384Z,6.20
2018-10-21T04:44:26.460Z,6.70
2018-10-21T04:49:29.978Z,4.37
2018-10-21T04:54:35.818Z,4.73
2018-10-21T04:59:40.102Z,5.17
2018-10-21T05:04:43.630Z,5.53
2018-10-21T05:09:47.222Z,5.70
2018-10-21T05:14:50.972Z,5.83
2018-10-21T05:19:54.428Z,8.27
2018-10-21T05:24:57.778Z,8.53
2018-10-21T05:30:01.339Z,7.00
2018-10-21T05:35:20.395Z,8.30
2018-10-21T05:40:23.938Z,7.03
2018-10-21T05:45:27.539Z,7.97
2018-10-21T05:50:30.846Z,7.93
2018-10-21T05:55:34.369Z,8.90
2018-10-21T06:00:37.901Z,7.10
2018-10-21T06:05:48.701Z,10.13
2018-10-21T06:10:52.277Z,8.60
2018-10-21T06:15:56.063Z,8.97
2018-10-21T06:21:02.057Z,8.27
2018-10-21T06:26:05.691Z,7.83
2018-10-21T06:31:09.439Z,8.83
2018-10-21T06:36:12.809Z,9.30
2018-10-21T06:41:16.252Z,8.67
2018-10-21T06:46:19.590Z,11.27
2018-10-21T06:51:23.180Z,9.10
2018-10-21T06:56:26.674Z,9.80
2018-10-21T07:01:30.783Z,13.80
2018-10-21T07:06:34.162Z,11.30
2018-10-21T07:11:38.837Z,10.73
2018-10-21T07:16:42.451Z,9.23
2018-10-21T07:21:45.950Z,10.53
2018-10-21T07:26:49.540Z,10.80
2018-10-21T07:32:24.386Z,9.87
2018-10-21T07:37:28.241Z,11.63
2018-10-21T07:42:31.516Z,11.37
2018-10-21T07:47:35.584Z,12.53
2018-10-21T07:52:39.826Z,13.10
2018-10-21T07:57:43.141Z,14.87
2018-10-21T08:02:47.433Z,13.93
2018-10-21T08:08:01.726Z,13.50
2018-10-21T08:13:06.412Z,14.80
2018-10-21T08:18:11.009Z,15.60
2018-10-21T08:23:15.253Z,18.43
2018-10-21T08:28:18.704Z,13.90
2018-10-21T08:33:26.453Z,17.80
2018-10-21T08:38:30.348Z,22.17
2018-10-21T08:43:34.556Z,15.83
2018-10-21T08:48:37.880Z,30.63
2018-10-21T08:53:42.083Z,19.37
2018-10-21T08:58:45.484Z,22.60
2018-10-21T09:03:48.919Z,23.80
2018-10-21T09:08:56.907Z,20.00
2018-10-21T09:14:01.705Z,21.73
2018-10-21T09:19:08.165Z,26.70
2018-10-21T09:24:11.868Z,18.17
2018-10-21T09:29:15.164Z,24.90
2018-10-21T09:34:18.567Z,39.10
2018-10-21T09:39:21.838Z,21.80
2018-10-21T09:44:25.128Z,23.10
2018-10-21T09:49:28.975Z,41.50
2018-10-21T09:54:33.093Z,41.97
2018-10-21T09:59:36.431Z,45.53
2018-10-21T10:04:39.802Z,29.20
2018-10-21T10:09:43.153Z,47.43
2018-10-21T10:14:46.504Z,27.67
2018-10-21T10:19:51.614Z,35.40
2018-10-21T10:24:55.048Z,67.00
2018-10-21T10:29:58.816Z,56.20
2018-10-21T10:35:05.129Z,28.63
2018-10-21T10:40:16.841Z,36.20
2018-10-21T10:45:21.389Z,63.93
2018-10-21T10:50:24.754Z,53.10
2018-10-21T10:55:33.595Z,43.93
2018-10-21T11:00:37.201Z,48.10
2018-10-21T11:05:42.781Z,70.23
2018-10-21T11:10:50.650Z,49.17
2018-10-21T11:15:54.686Z,67.23
2018-10-21T11:20:58.190Z,64.43
2018-10-21T11:26:01.938Z,50.10
2018-10-21T11:31:05.856Z,64.73
2018-10-21T11:36:11.021Z,65.63
2018-10-21T11:41:15.148Z,65.73
2018-10-21T11:46:21.085Z,60.27
2018-10-21T11:51:24.932Z,58.60
2018-10-21T11:56:28.593Z,58.53
2018-10-21T12:01:31.989Z,57.30
2018-10-21T12:06:36.206Z,54.60
2018-10-21T12:11:40.039Z,62.60
2018-10-21T12:16:43.577Z,64.57
2018-10-21T12:21:46.970Z,62.23
2018-10-21T12:26:50.336Z,56.73
2018-10-21T12:31:56.285Z,58.13
2018-10-21T12:37:00.720Z,61.53
2018-10-21T12:42:05.001Z,54.87
2018-10-21T12:47:09.390Z,54.97
2018-10-21T12:52:12.865Z,56.70
2018-10-21T12:57:21.645Z,65.80
2018-10-21T13:02:29.695Z,60.17
2018-10-21T13:07:37.470Z,55.33
2018-10-21T13:12:43.588Z,58.77
2018-10-21T13:17:47.361Z,64.17
2018-10-21T13:22:50.742Z,62.20
2018-10-21T13:27:54.074Z,62.57
2018-10-21T13:32:57.405Z,64.53
2018-10-21T13:38:00.889Z,64.50
2018-10-21T13:43:05.235Z,57.67
2018-10-21T13:48:21.580Z,52.40
2018-10-21T13:53:30.161Z,64.47
2018-10-21T13:58:34.036Z,72.50
2018-10-21T14:03:37.309Z,69.57
2018-10-21T14:08:40.943Z,73.27
2018-10-21T14:13:44.321Z,73.53
2018-10-21T14:18:48.179Z,78.23
2018-10-21T14:23:51.520Z,81.73
2018-10-21T14:28:56.810Z,61.60
2018-10-21T14:34:00.669Z,78.63
2018-10-21T14:39:07.551Z,75.73
2018-10-21T14:44:10.878Z,83.60
2018-10-21T14:49:14.509Z,81.60
2018-10-21T14:55:20.570Z,75.10
2018-10-21T15:00:23.952Z,76.30
2018-10-21T15:05:27.270Z,78.90
2018-10-21T15:10:31.011Z,67.80
2018-10-21T15:15:34.396Z,78.03
2018-10-21T15:20:38.109Z,79.33
2018-10-21T15:25:41.804Z,73.47
2018-10-21T15:30:45.674Z,73.90
2018-10-21T15:35:48.999Z,75.07
2018-10-21T15:40:53.059Z,83.93
2018-10-21T15:45:57.075Z,68.10
2018-10-21T15:51:00.561Z,80.70
2018-10-21T15:56:04.761Z,75.20
2018-10-21T16:01:26.411Z,79.43
2018-10-21T16:06:34.275Z,67.00
2018-10-21T16:11:38.409Z,75.80
2018-10-21T16:16:45.466Z,74.53
2018-10-21T16:21:52.116Z,67.20
2018-10-21T16:26:55.702Z,69.03
2018-10-21T16:31:59.284Z,72.67
2018-10-21T16:37:02.897Z,59.43
2018-10-21T16:42:06.728Z,68.93
2018-10-21T16:47:10.277Z,72.70
2018-10-21T16:52:25.552Z,56.73
2018-10-21T16:57:29.557Z,67.20
2018-10-21T17:02:36.867Z,59.50
2018-10-21T17:07:43.738Z,55.50
2018-10-21T17:12:47.293Z,68.07
2018-10-21T17:17:50.666Z,67.40
2018-10-21T17:22:54.007Z,63.17
2018-10-21T17:27:58.094Z,50.40
2018-10-21T17:33:01.517Z,58.70
2018-10-21T17:38:05.566Z,61.60
2018-10-21T17:43:09.604Z,59.70
2018-10-21T17:48:16.735Z,56.10
2018-10-21T17:53:20.526Z,52.60
2018-10-21T17:58:23.992Z,56.17
2018-10-21T18:03:29.279Z,51.13
2018-10-21T18:08:34.124Z,57.67
2018-10-21T18:13:38.561Z,62.50
2018-10-21T18:18:42.031Z,56.13
2018-10-21T18:23:45.462Z,58.00
2018-10-21T18:28:48.991Z,51.57
2018-10-21T18:33:52.510Z,55.60
2018-10-21T18:38:56.316Z,50.70
2018-10-21T18:44:00.643Z,55.93
2018-10-21T18:49:04.588Z,54.03
2018-10-21T18:54:08.153Z,59.00
2018-10-21T18:59:11.724Z,53.67
2018-10-21T19:04:15.257Z,51.47
2018-10-21T19:09:18.602Z,56.97
2018-10-21T19:14:24.392Z,52.10
2018-10-21T19:19:28.132Z,56.10
2018-10-21T19:24:31.575Z,52.70
2018-10-21T19:29:36.005Z,53.60
2018-10-21T19:34:44.276Z,48.50
2018-10-21T19:39:48.188Z,47.17
2018-10-21T19:44:52.276Z,50.63
2018-10-21T19:49:58.556Z,53.77
2018-10-21T19:55:02.969Z,57.60
2018-10-21T20:00:08.565Z,49.70
2018-10-21T20:05:11.884Z,53.27
2018-10-21T20:10:15.766Z,54.20
2018-10-21T20:15:19.442Z,56.93
2018-10-21T20:20:24.465Z,37.23
2018-10-21T20:25:36.788Z,55.93
2018-10-21T20:30:40.755Z,52.13
2018-10-21T20:35:44.123Z,63.87
2018-10-21T20:40:47.482Z,61.53
2018-10-21T20:45:51.469Z,72.57
2018-10-21T20:50:54.767Z,82.77
2018-10-21T20:55:58.795Z,69.97
2018-10-21T21:01:02.170Z,76.10
2018-10-21T21:06:05.563Z,57.80
2018-10-21T21:11:09.465Z,74.50
2018-10-21T21:16:12.992Z,63.20
2018-10-21T21:21:16.404Z,56.40
2018-10-21T21:26:20.240Z,80.83
2018-10-21T21:31:28.020Z,71.27
2018-10-21T21:36:31.682Z,74.30
2018-10-21T21:41:35.060Z,74.23
2018-10-21T21:46:39.307Z,35.43
2018-10-21T21:51:42.626Z,53.33
2018-10-21T21:56:46.858Z,50.33
2018-10-21T22:01:50.721Z,88.80
2018-10-21T22:06:54.241Z,92.03
2018-10-21T22:11:58.267Z,107.10
2018-10-21T22:17:02.225Z,114.80
2018-10-21T22:22:06.093Z,111.37
2018-10-21T22:27:09.609Z,92.17
2018-10-21T22:32:13.779Z,118.70
2018-10-21T22:37:17.170Z,125.93
2018-10-21T22:42:20.916Z,118.20
2018-10-21T22:47:24.267Z,112.40
2018-10-21T22:52:27.787Z,108.07
2018-10-21T22:57:31.194Z,101.77
2018-10-21T23:02:35.121Z,103.80
2018-10-21T23:07:39.507Z,95.90
2018-10-21T23:12:43.249Z,96.57
2018-10-21T23:17:47.320Z,94.37
2018-10-21T23:22:50.901Z,78.93
2018-10-21T23:27:54.249Z,78.03
2018-10-21T23:32:58.108Z,64.13
2018-10-21T23:38:02.217Z,61.27
2018-10-21T23:43:05.870Z,32.90
2018-10-21T23:48:09.900Z,17.50
2018-10-21T23:53:13.558Z,8.33
2018-10-21T23:58:17.954Z,8.60
